sensor_id;sensor_type;location;lat;lon;timestamp;temperature;humidity
20481;DHT22;10399;50.754;3.366;2023-05-07T00:00:05;17.50;99.90
20481;DHT22;10399;50.754;3.366;2023-05-07T00:02:35;17.40;99.90
20481;DHT22;10399;50.754;3.366;2023-05-07T00:05:06;17.40;99.90
20481;DHT22;10399;50.754;3.366;2023-05-07T00:07:34;17.30;99.90
20481;DHT22;10399;50.754;3.366;2023-05-07T00:10:02;17.30;99.90
20481;DHT22;10399;50.754;3.366;2023-05-07T00:12:30;17.30;99.90
20481;DHT22;10399;50.754;3.366;2023-05-07T00:14:58;17.30;99.90
20481;DHT22;10399;50.754;3.366;2023-05-07T00:17:25;17.30;99.90
20481;DHT22;10399;50.754;3.366;2023-05-07T00:19:52;17.30;99.90
20481;DHT22;10399;50.754;3.366;2023-05-07T00:22:19;17.20;99.90
20481;DHT22;10399;50.754;3.366;2023-05-07T00:24:45;17.20;99.90
20481;DHT22;10399;50.754;3.366;2023-05-07T00:27:12;17.30;99.90
20481;DHT22;10399;50.754;3.366;2023-05-07T00:29:39;17.20;99.90
20481;DHT22;10399;50.754;3.366;2023-05-07T00:32:06;17.20;99.90
20481;DHT22;10399;50.754;3.366;2023-05-07T00:34:34;17.20;99.90
20481;DHT22;10399;50.754;3.366;2023-05-07T00:37:01;17.20;99.90
20481;DHT22;10399;50.754;3.366;2023-05-07T00:39:31;17.10;99.90
20481;DHT22;10399;50.754;3.366;2023-05-07T00:41:58;17.10;99.90
20481;DHT22;10399;50.754;3.366;2023-05-07T00:44:25;17.00;99.90
20481;DHT22;10399;50.754;3.366;2023-05-07T00:46:53;17.00;99.90
20481;DHT22;10399;50.754;3.366;2023-05-07T00:49:20;16.90;99.90
20481;DHT22;10399;50.754;3.366;2023-05-07T00:51:48;16.90;99.90
20481;DHT22;10399;50.754;3.366;2023-05-07T00:54:15;16.90;99.90
20481;DHT22;10399;50.754;3.366;2023-05-07T00:56:42;16.80;99.90
20481;DHT22;10399;50.754;3.366;2023-05-07T00:59:09;16.90;99.90
20481;DHT22;10399;50.754;3.366;2023-05-07T01:01:37;16.90;99.90
20481;DHT22;10399;50.754;3.366;2023-05-07T01:04:04;16.90;99.90
20481;DHT22;10399;50.754;3.366;2023-05-07T01:06:32;16.90;99.90
20481;DHT22;10399;50.754;3.366;2023-05-07T01:09:00;16.70;99.90
20481;DHT22;10399;50.754;3.366;2023-05-07T01:11:28;16.70;99.90
20481;DHT22;10399;50.754;3.366;2023-05-07T01:13:56;16.70;99.90
20481;DHT22;10399;50.754;3.366;2023-05-07T01:16:23;16.70;99.90
20481;DHT22;10399;50.754;3.366;2023-05-07T01:18:50;16.70;99.90
20481;DHT22;10399;50.754;3.366;2023-05-07T01:21:18;16.90;99.90
20481;DHT22;10399;50.754;3.366;2023-05-07T01:23:45;16.90;99.90
20481;DHT22;10399;50.754;3.366;2023-05-07T01:26:13;16.90;99.90
20481;DHT22;10399;50.754;3.366;2023-05-07T01:28:41;16.80;99.90
20481;DHT22;10399;50.754;3.366;2023-05-07T01:31:08;16.90;99.90
20481;DHT22;10399;50.754;3.366;2023-05-07T01:33:38;16.90;99.90
20481;DHT22;10399;50.754;3.366;2023-05-07T01:36:08;16.80;99.90
20481;DHT22;10399;50.754;3.366;2023-05-07T01:38:36;16.80;99.90
20481;DHT22;10399;50.754;3.366;2023-05-07T01:41:04;16.70;99.90
20481;DHT22;10399;50.754;3.366;2023-05-07T01:43:31;16.80;99.90
20481;DHT22;10399;50.754;3.366;2023-05-07T01:45:59;16.80;99.90
20481;DHT22;10399;50.754;3.366;2023-05-07T01:48:26;16.80;99.90
20481;DHT22;10399;50.754;3.366;2023-05-07T01:50:53;16.90;99.90
20481;DHT22;10399;50.754;3.366;2023-05-07T01:53:21;16.80;99.90
20481;DHT22;10399;50.754;3.366;2023-05-07T01:55:49;16.80;99.90
20481;DHT22;10399;50.754;3.366;2023-05-07T01:58:16;16.80;99.90
20481;DHT22;10399;50.754;3.366;2023-05-07T02:00:43;16.70;99.90
20481;DHT22;10399;50.754;3.366;2023-05-07T02:03:10;16.80;99.90
20481;DHT22;10399;50.754;3.366;2023-05-07T02:05:38;16.80;99.90
20481;DHT22;10399;50.754;3.366;2023-05-07T02:08:04;16.80;99.90
20481;DHT22;10399;50.754;3.366;2023-05-07T02:10:32;16.70;99.90
20481;DHT22;10399;50.754;3.366;2023-05-07T02:12:59;16.70;99.90
20481;DHT22;10399;50.754;3.366;2023-05-07T02:15:28;16.60;99.90
20481;DHT22;10399;50.754;3.366;2023-05-07T02:18:03;16.70;99.90
20481;DHT22;10399;50.754;3.366;2023-05-07T02:20:31;16.70;99.90
20481;DHT22;10399;50.754;3.366;2023-05-07T02:22:58;16.60;99.90
20481;DHT22;10399;50.754;3.366;2023-05-07T02:25:24;16.60;99.90
20481;DHT22;10399;50.754;3.366;2023-05-07T02:27:51;16.50;99.90
20481;DHT22;10399;50.754;3.366;2023-05-07T02:30:19;16.50;99.90
20481;DHT22;10399;50.754;3.366;2023-05-07T02:32:48;16.60;99.90
20481;DHT22;10399;50.754;3.366;2023-05-07T02:35:15;16.70;99.90
20481;DHT22;10399;50.754;3.366;2023-05-07T02:37:42;16.80;99.90
20481;DHT22;10399;50.754;3.366;2023-05-07T02:40:10;16.80;99.90
20481;DHT22;10399;50.754;3.366;2023-05-07T02:42:38;16.80;99.90
20481;DHT22;10399;50.754;3.366;2023-05-07T02:45:05;16.80;99.90
20481;DHT22;10399;50.754;3.366;2023-05-07T02:47:32;16.70;99.90
20481;DHT22;10399;50.754;3.366;2023-05-07T02:50:00;16.80;99.90
20481;DHT22;10399;50.754;3.366;2023-05-07T02:52:27;16.80;99.90
20481;DHT22;10399;50.754;3.366;2023-05-07T02:54:54;16.80;99.90
20481;DHT22;10399;50.754;3.366;2023-05-07T02:57:21;16.80;99.90
20481;DHT22;10399;50.754;3.366;2023-05-07T02:59:49;16.80;99.90
20481;DHT22;10399;50.754;3.366;2023-05-07T03:02:17;16.80;99.90
20481;DHT22;10399;50.754;3.366;2023-05-07T03:04:44;16.80;99.90
20481;DHT22;10399;50.754;3.366;2023-05-07T03:07:11;16.90;99.90
20481;DHT22;10399;50.754;3.366;2023-05-07T03:09:38;16.80;99.90
20481;DHT22;10399;50.754;3.366;2023-05-07T03:12:06;16.80;99.90
20481;DHT22;10399;50.754;3.366;2023-05-07T03:14:33;16.90;99.90
20481;DHT22;10399;50.754;3.366;2023-05-07T03:16:59;16.90;99.90
20481;DHT22;10399;50.754;3.366;2023-05-07T03:19:26;16.90;99.90
20481;DHT22;10399;50.754;3.366;2023-05-07T03:21:53;16.90;99.90
20481;DHT22;10399;50.754;3.366;2023-05-07T03:24:20;16.90;99.90
20481;DHT22;10399;50.754;3.366;2023-05-07T03:26:47;16.90;99.90
20481;DHT22;10399;50.754;3.366;2023-05-07T03:29:14;16.90;99.90
20481;DHT22;10399;50.754;3.366;2023-05-07T03:31:41;17.00;99.90
20481;DHT22;10399;50.754;3.366;2023-05-07T03:34:09;16.80;99.90
20481;DHT22;10399;50.754;3.366;2023-05-07T03:36:35;17.00;99.90
20481;DHT22;10399;50.754;3.366;2023-05-07T03:39:02;17.00;99.90
20481;DHT22;10399;50.754;3.366;2023-05-07T03:41:30;16.80;99.90
20481;DHT22;10399;50.754;3.366;2023-05-07T03:43:56;16.80;99.90
20481;DHT22;10399;50.754;3.366;2023-05-07T03:46:23;16.70;99.90
20481;DHT22;10399;50.754;3.366;2023-05-07T03:48:53;16.80;99.90
20481;DHT22;10399;50.754;3.366;2023-05-07T03:51:23;16.90;99.90
20481;DHT22;10399;50.754;3.366;2023-05-07T03:53:50;17.00;99.90
20481;DHT22;10399;50.754;3.366;2023-05-07T03:56:19;17.00;99.90
20481;DHT22;10399;50.754;3.366;2023-05-07T03:58:47;17.10;99.90
20481;DHT22;10399;50.754;3.366;2023-05-07T04:01:19;17.10;99.90
20481;DHT22;10399;50.754;3.366;2023-05-07T04:03:46;17.00;99.90
20481;DHT22;10399;50.754;3.366;2023-05-07T04:06:15;17.00;99.90
20481;DHT22;10399;50.754;3.366;2023-05-07T04:08:42;17.00;99.90
20481;DHT22;10399;50.754;3.366;2023-05-07T04:11:09;17.00;99.90
20481;DHT22;10399;50.754;3.366;2023-05-07T04:13:37;17.00;99.90
20481;DHT22;10399;50.754;3.366;2023-05-07T04:16:05;17.00;99.90
20481;DHT22;10399;50.754;3.366;2023-05-07T04:18:32;16.90;99.90
20481;DHT22;10399;50.754;3.366;2023-05-07T04:21:01;16.80;99.90
20481;DHT22;10399;50.754;3.366;2023-05-07T04:23:28;16.90;99.90
20481;DHT22;10399;50.754;3.366;2023-05-07T04:25:55;16.80;99.90
20481;DHT22;10399;50.754;3.366;2023-05-07T04:28:23;16.80;99.90
20481;DHT22;10399;50.754;3.366;2023-05-07T04:30:50;16.70;99.90
20481;DHT22;10399;50.754;3.366;2023-05-07T04:33:17;16.80;99.90
20481;DHT22;10399;50.754;3.366;2023-05-07T04:35:44;16.80;99.90
20481;DHT22;10399;50.754;3.366;2023-05-07T04:38:12;16.90;99.90
20481;DHT22;10399;50.754;3.366;2023-05-07T04:40:39;16.80;99.90
20481;DHT22;10399;50.754;3.366;2023-05-07T04:43:07;16.70;99.90
20481;DHT22;10399;50.754;3.366;2023-05-07T04:45:36;16.60;99.90
20481;DHT22;10399;50.754;3.366;2023-05-07T04:48:03;16.60;99.90
20481;DHT22;10399;50.754;3.366;2023-05-07T04:50:31;16.80;99.90
20481;DHT22;10399;50.754;3.366;2023-05-07T04:52:57;16.80;99.90
20481;DHT22;10399;50.754;3.366;2023-05-07T04:55:24;16.80;99.90
20481;DHT22;10399;50.754;3.366;2023-05-07T04:57:52;16.80;99.90
20481;DHT22;10399;50.754;3.366;2023-05-07T05:00:19;16.80;99.90
20481;DHT22;10399;50.754;3.366;2023-05-07T05:02:46;16.70;99.90
20481;DHT22;10399;50.754;3.366;2023-05-07T05:05:13;16.70;99.90
20481;DHT22;10399;50.754;3.366;2023-05-07T05:07:40;16.60;99.90
20481;DHT22;10399;50.754;3.366;2023-05-07T05:10:08;16.70;99.90
20481;DHT22;10399;50.754;3.366;2023-05-07T05:12:35;16.60;99.90
20481;DHT22;10399;50.754;3.366;2023-05-07T05:15:02;16.60;99.90
20481;DHT22;10399;50.754;3.366;2023-05-07T05:17:29;16.50;99.90
20481;DHT22;10399;50.754;3.366;2023-05-07T05:19:57;16.50;99.90
20481;DHT22;10399;50.754;3.366;2023-05-07T05:22:24;16.30;99.90
20481;DHT22;10399;50.754;3.366;2023-05-07T05:24:52;16.40;99.90
20481;DHT22;10399;50.754;3.366;2023-05-07T05:27:20;16.40;99.90
20481;DHT22;10399;50.754;3.366;2023-05-07T05:29:47;16.50;99.90
20481;DHT22;10399;50.754;3.366;2023-05-07T05:32:14;16.60;99.90
20481;DHT22;10399;50.754;3.366;2023-05-07T05:34:41;16.50;99.90
20481;DHT22;10399;50.754;3.366;2023-05-07T05:37:08;16.60;99.90
20481;DHT22;10399;50.754;3.366;2023-05-07T05:39:35;16.70;99.90
20481;DHT22;10399;50.754;3.366;2023-05-07T05:42:02;16.70;99.90
20481;DHT22;10399;50.754;3.366;2023-05-07T05:44:29;16.70;99.90
20481;DHT22;10399;50.754;3.366;2023-05-07T05:46:56;16.70;99.90
20481;DHT22;10399;50.754;3.366;2023-05-07T05:49:26;16.70;99.90
20481;DHT22;10399;50.754;3.366;2023-05-07T05:51:53;16.70;99.90
20481;DHT22;10399;50.754;3.366;2023-05-07T05:54:20;16.70;99.90
20481;DHT22;10399;50.754;3.366;2023-05-07T05:56:47;16.80;99.90
20481;DHT22;10399;50.754;3.366;2023-05-07T05:59:14;16.70;99.90
20481;DHT22;10399;50.754;3.366;2023-05-07T06:01:41;16.60;99.90
20481;DHT22;10399;50.754;3.366;2023-05-07T06:04:09;16.70;99.90
20481;DHT22;10399;50.754;3.366;2023-05-07T06:06:35;16.70;99.90
20481;DHT22;10399;50.754;3.366;2023-05-07T06:09:02;16.80;99.90
20481;DHT22;10399;50.754;3.366;2023-05-07T06:11:31;16.70;99.90
20481;DHT22;10399;50.754;3.366;2023-05-07T06:13:58;16.70;99.90
20481;DHT22;10399;50.754;3.366;2023-05-07T06:16:25;16.80;99.90
20481;DHT22;10399;50.754;3.366;2023-05-07T06:18:52;16.70;99.90
20481;DHT22;10399;50.754;3.366;2023-05-07T06:21:19;16.60;99.90
20481;DHT22;10399;50.754;3.366;2023-05-07T06:23:46;16.60;99.90
20481;DHT22;10399;50.754;3.366;2023-05-07T06:26:13;16.60;99.90
20481;DHT22;10399;50.754;3.366;2023-05-07T06:28:41;16.60;99.90
20481;DHT22;10399;50.754;3.366;2023-05-07T06:31:15;16.70;99.90
20481;DHT22;10399;50.754;3.366;2023-05-07T06:33:44;16.70;99.90
20481;DHT22;10399;50.754;3.366;2023-05-07T06:36:12;16.70;99.90
20481;DHT22;10399;50.754;3.366;2023-05-07T06:38:39;16.80;99.90
20481;DHT22;10399;50.754;3.366;2023-05-07T06:41:06;16.80;99.90
20481;DHT22;10399;50.754;3.366;2023-05-07T06:43:33;16.70;99.90
20481;DHT22;10399;50.754;3.366;2023-05-07T06:46:00;16.80;99.90
20481;DHT22;10399;50.754;3.366;2023-05-07T06:48:27;16.80;99.90
20481;DHT22;10399;50.754;3.366;2023-05-07T06:50:54;16.80;99.90
20481;DHT22;10399;50.754;3.366;2023-05-07T06:53:22;17.00;99.90
20481;DHT22;10399;50.754;3.366;2023-05-07T06:55:49;17.00;99.90
20481;DHT22;10399;50.754;3.366;2023-05-07T06:58:16;17.00;99.90
20481;DHT22;10399;50.754;3.366;2023-05-07T07:00:43;17.00;99.90
20481;DHT22;10399;50.754;3.366;2023-05-07T07:03:10;16.90;99.90
20481;DHT22;10399;50.754;3.366;2023-05-07T07:05:37;16.90;99.90
20481;DHT22;10399;50.754;3.366;2023-05-07T07:08:05;17.00;99.90
20481;DHT22;10399;50.754;3.366;2023-05-07T07:10:32;17.10;99.90
20481;DHT22;10399;50.754;3.366;2023-05-07T07:12:59;17.10;99.90
20481;DHT22;10399;50.754;3.366;2023-05-07T07:15:26;17.00;99.90
20481;DHT22;10399;50.754;3.366;2023-05-07T07:17:55;17.00;99.90
20481;DHT22;10399;50.754;3.366;2023-05-07T07:20:22;16.90;99.90
20481;DHT22;10399;50.754;3.366;2023-05-07T07:22:49;17.00;99.90
20481;DHT22;10399;50.754;3.366;2023-05-07T07:25:16;16.90;99.90
20481;DHT22;10399;50.754;3.366;2023-05-07T07:27:43;16.90;99.90
20481;DHT22;10399;50.754;3.366;2023-05-07T07:30:10;17.00;99.90
20481;DHT22;10399;50.754;3.366;2023-05-07T07:32:38;17.00;99.90
20481;DHT22;10399;50.754;3.366;2023-05-07T07:35:05;17.10;99.90
20481;DHT22;10399;50.754;3.366;2023-05-07T07:37:33;16.90;99.90
20481;DHT22;10399;50.754;3.366;2023-05-07T07:40:01;17.00;99.90
20481;DHT22;10399;50.754;3.366;2023-05-07T07:42:30;17.10;99.90
20481;DHT22;10399;50.754;3.366;2023-05-07T07:44:57;17.20;99.90
20481;DHT22;10399;50.754;3.366;2023-05-07T07:47:25;17.20;99.90
20481;DHT22;10399;50.754;3.366;2023-05-07T07:49:53;17.30;99.90
20481;DHT22;10399;50.754;3.366;2023-05-07T07:52:20;17.30;99.90
20481;DHT22;10399;50.754;3.366;2023-05-07T07:54:51;17.20;99.90
20481;DHT22;10399;50.754;3.366;2023-05-07T07:57:19;17.30;99.90
20481;DHT22;10399;50.754;3.366;2023-05-07T07:59:46;17.30;99.90
20481;DHT22;10399;50.754;3.366;2023-05-07T08:02:13;17.40;99.90
20481;DHT22;10399;50.754;3.366;2023-05-07T08:04:40;17.30;99.90
20481;DHT22;10399;50.754;3.366;2023-05-07T08:07:10;17.20;99.90
20481;DHT22;10399;50.754;3.366;2023-05-07T08:09:38;17.30;99.90
20481;DHT22;10399;50.754;3.366;2023-05-07T08:12:06;17.40;99.90
20481;DHT22;10399;50.754;3.366;2023-05-07T08:14:34;17.50;99.90
20481;DHT22;10399;50.754;3.366;2023-05-07T08:17:04;17.40;99.90
20481;DHT22;10399;50.754;3.366;2023-05-07T08:19:31;17.40;99.90
20481;DHT22;10399;50.754;3.366;2023-05-07T08:21:58;17.50;99.90
20481;DHT22;10399;50.754;3.366;2023-05-07T08:24:26;17.40;99.90
20481;DHT22;10399;50.754;3.366;2023-05-07T08:26:53;17.40;99.90
20481;DHT22;10399;50.754;3.366;2023-05-07T08:29:20;17.60;99.90
20481;DHT22;10399;50.754;3.366;2023-05-07T08:31:47;17.50;99.90
20481;DHT22;10399;50.754;3.366;2023-05-07T08:34:14;17.50;99.90
20481;DHT22;10399;50.754;3.366;2023-05-07T08:36:41;17.50;99.90
20481;DHT22;10399;50.754;3.366;2023-05-07T08:39:08;17.60;99.90
20481;DHT22;10399;50.754;3.366;2023-05-07T08:41:36;17.60;99.90
20481;DHT22;10399;50.754;3.366;2023-05-07T08:44:06;18.00;99.90
20481;DHT22;10399;50.754;3.366;2023-05-07T08:46:38;17.80;99.90
20481;DHT22;10399;50.754;3.366;2023-05-07T08:49:06;17.70;99.90
20481;DHT22;10399;50.754;3.366;2023-05-07T08:51:33;17.60;99.90
20481;DHT22;10399;50.754;3.366;2023-05-07T08:54:01;17.60;99.90
20481;DHT22;10399;50.754;3.366;2023-05-07T08:56:28;17.50;99.90
20481;DHT22;10399;50.754;3.366;2023-05-07T08:58:55;17.70;99.90
20481;DHT22;10399;50.754;3.366;2023-05-07T09:01:26;17.70;99.90
20481;DHT22;10399;50.754;3.366;2023-05-07T09:03:53;17.70;99.90
20481;DHT22;10399;50.754;3.366;2023-05-07T09:06:22;17.60;99.90
20481;DHT22;10399;50.754;3.366;2023-05-07T09:08:51;17.70;99.90
20481;DHT22;10399;50.754;3.366;2023-05-07T09:11:22;17.70;99.90
20481;DHT22;10399;50.754;3.366;2023-05-07T09:13:54;17.70;99.90
20481;DHT22;10399;50.754;3.366;2023-05-07T09:16:23;17.80;99.90
20481;DHT22;10399;50.754;3.366;2023-05-07T09:18:52;17.70;99.90
20481;DHT22;10399;50.754;3.366;2023-05-07T09:21:20;17.90;99.90
20481;DHT22;10399;50.754;3.366;2023-05-07T09:23:50;18.00;99.90
20481;DHT22;10399;50.754;3.366;2023-05-07T09:26:17;18.00;99.90
20481;DHT22;10399;50.754;3.366;2023-05-07T09:28:44;18.10;99.90
20481;DHT22;10399;50.754;3.366;2023-05-07T09:31:14;18.10;99.90
20481;DHT22;10399;50.754;3.366;2023-05-07T09:33:41;18.20;99.90
20481;DHT22;10399;50.754;3.366;2023-05-07T09:36:09;18.20;99.90
20481;DHT22;10399;50.754;3.366;2023-05-07T09:38:38;18.20;99.90
20481;DHT22;10399;50.754;3.366;2023-05-07T09:41:07;18.20;99.90
20481;DHT22;10399;50.754;3.366;2023-05-07T09:43:37;18.40;99.90
20481;DHT22;10399;50.754;3.366;2023-05-07T09:46:12;18.40;99.90
20481;DHT22;10399;50.754;3.366;2023-05-07T09:48:44;18.40;99.90
20481;DHT22;10399;50.754;3.366;2023-05-07T09:54:06;18.50;99.90
20481;DHT22;10399;50.754;3.366;2023-05-07T09:56:35;18.60;99.90
20481;DHT22;10399;50.754;3.366;2023-05-07T09:59:05;18.50;99.90
20481;DHT22;10399;50.754;3.366;2023-05-07T10:01:36;18.50;99.90
20481;DHT22;10399;50.754;3.366;2023-05-07T10:04:03;18.50;99.90
20481;DHT22;10399;50.754;3.366;2023-05-07T10:06:31;18.60;99.90
20481;DHT22;10399;50.754;3.366;2023-05-07T10:08:59;18.40;99.90
20481;DHT22;10399;50.754;3.366;2023-05-07T10:11:26;18.30;99.90
20481;DHT22;10399;50.754;3.366;2023-05-07T10:13:54;18.30;99.90
20481;DHT22;10399;50.754;3.366;2023-05-07T10:16:21;18.40;99.90
20481;DHT22;10399;50.754;3.366;2023-05-07T10:18:49;18.30;99.90
20481;DHT22;10399;50.754;3.366;2023-05-07T10:21:19;18.20;99.90
20481;DHT22;10399;50.754;3.366;2023-05-07T10:23:53;18.30;99.90
20481;DHT22;10399;50.754;3.366;2023-05-07T10:26:22;18.60;99.90
20481;DHT22;10399;50.754;3.366;2023-05-07T10:28:54;18.70;99.90
20481;DHT22;10399;50.754;3.366;2023-05-07T10:34:19;18.70;99.90
20481;DHT22;10399;50.754;3.366;2023-05-07T10:36:48;18.90;99.90
20481;DHT22;10399;50.754;3.366;2023-05-07T10:39:17;18.90;99.90
20481;DHT22;10399;50.754;3.366;2023-05-07T10:41:44;18.80;99.90
20481;DHT22;10399;50.754;3.366;2023-05-07T10:44:11;18.60;99.90
20481;DHT22;10399;50.754;3.366;2023-05-07T10:46:38;18.70;99.90
20481;DHT22;10399;50.754;3.366;2023-05-07T10:49:06;18.90;99.90
20481;DHT22;10399;50.754;3.366;2023-05-07T10:51:33;19.00;99.90
20481;DHT22;10399;50.754;3.366;2023-05-07T10:56:40;19.00;99.90
20481;DHT22;10399;50.754;3.366;2023-05-07T11:02:04;18.90;99.90
20481;DHT22;10399;50.754;3.366;2023-05-07T11:04:33;18.90;99.90
20481;DHT22;10399;50.754;3.366;2023-05-07T11:15:07;18.80;99.90
20481;DHT22;10399;50.754;3.366;2023-05-07T11:17:51;18.90;99.90
20481;DHT22;10399;50.754;3.366;2023-05-07T11:20:18;19.00;99.90
20481;DHT22;10399;50.754;3.366;2023-05-07T11:22:47;19.30;99.90
20481;DHT22;10399;50.754;3.366;2023-05-07T11:25:18;19.30;99.90
20481;DHT22;10399;50.754;3.366;2023-05-07T11:27:46;19.20;99.90
20481;DHT22;10399;50.754;3.366;2023-05-07T11:30:22;19.50;99.90
20481;DHT22;10399;50.754;3.366;2023-05-07T11:32:50;19.70;99.90
20481;DHT22;10399;50.754;3.366;2023-05-07T11:35:18;19.40;99.90
20481;DHT22;10399;50.754;3.366;2023-05-07T11:37:46;19.30;99.90
20481;DHT22;10399;50.754;3.366;2023-05-07T11:40:14;19.30;99.90
20481;DHT22;10399;50.754;3.366;2023-05-07T11:42:41;19.40;99.90
20481;DHT22;10399;50.754;3.366;2023-05-07T11:45:11;19.60;99.90
20481;DHT22;10399;50.754;3.366;2023-05-07T11:47:41;19.70;99.90
20481;DHT22;10399;50.754;3.366;2023-05-07T11:50:08;19.70;99.90
20481;DHT22;10399;50.754;3.366;2023-05-07T11:52:37;19.70;99.90
20481;DHT22;10399;50.754;3.366;2023-05-07T11:55:07;19.60;99.90
20481;DHT22;10399;50.754;3.366;2023-05-07T11:57:34;19.70;99.90
20481;DHT22;10399;50.754;3.366;2023-05-07T12:00:03;19.80;99.90
20481;DHT22;10399;50.754;3.366;2023-05-07T12:02:31;20.00;99.90
20481;DHT22;10399;50.754;3.366;2023-05-07T12:05:00;20.20;99.90
20481;DHT22;10399;50.754;3.366;2023-05-07T12:07:27;20.00;99.90
20481;DHT22;10399;50.754;3.366;2023-05-07T12:09:55;20.00;99.90
20481;DHT22;10399;50.754;3.366;2023-05-07T12:12:22;20.20;99.90
20481;DHT22;10399;50.754;3.366;2023-05-07T12:14:49;20.30;99.90
20481;DHT22;10399;50.754;3.366;2023-05-07T12:17:17;20.30;99.90
20481;DHT22;10399;50.754;3.366;2023-05-07T12:19:45;20.50;99.90
20481;DHT22;10399;50.754;3.366;2023-05-07T12:22:13;20.70;99.90
20481;DHT22;10399;50.754;3.366;2023-05-07T12:24:48;20.50;99.90
20481;DHT22;10399;50.754;3.366;2023-05-07T12:27:16;20.20;99.90
20481;DHT22;10399;50.754;3.366;2023-05-07T12:29:47;20.40;99.90
20481;DHT22;10399;50.754;3.366;2023-05-07T12:32:19;20.50;99.90
20481;DHT22;10399;50.754;3.366;2023-05-07T12:34:49;20.40;99.90
20481;DHT22;10399;50.754;3.366;2023-05-07T12:37:17;20.60;99.90
20481;DHT22;10399;50.754;3.366;2023-05-07T12:40:02;20.70;99.90
20481;DHT22;10399;50.754;3.366;2023-05-07T12:42:33;20.50;99.90
20481;DHT22;10399;50.754;3.366;2023-05-07T12:45:13;20.30;99.90
20481;DHT22;10399;50.754;3.366;2023-05-07T12:47:46;20.70;99.90
20481;DHT22;10399;50.754;3.366;2023-05-07T12:50:14;20.80;99.90
20481;DHT22;10399;50.754;3.366;2023-05-07T12:52:49;20.90;99.90
20481;DHT22;10399;50.754;3.366;2023-05-07T12:55:17;20.70;99.90
20481;DHT22;10399;50.754;3.366;2023-05-07T12:57:50;21.00;99.90
20481;DHT22;10399;50.754;3.366;2023-05-07T13:00:38;20.90;99.90
20481;DHT22;10399;50.754;3.366;2023-05-07T13:03:05;21.10;99.90
20481;DHT22;10399;50.754;3.366;2023-05-07T13:05:34;20.80;99.90
20481;DHT22;10399;50.754;3.366;2023-05-07T13:08:01;20.80;99.90
20481;DHT22;10399;50.754;3.366;2023-05-07T13:10:28;20.60;99.90
20481;DHT22;10399;50.754;3.366;2023-05-07T13:12:55;20.20;99.90
20481;DHT22;10399;50.754;3.366;2023-05-07T13:15:22;19.80;99.90
20481;DHT22;10399;50.754;3.366;2023-05-07T13:17:50;19.40;99.90
20481;DHT22;10399;50.754;3.366;2023-05-07T13:20:17;19.50;99.90
20481;DHT22;10399;50.754;3.366;2023-05-07T13:22:44;19.00;99.90
20481;DHT22;10399;50.754;3.366;2023-05-07T13:25:11;18.90;99.90
20481;DHT22;10399;50.754;3.366;2023-05-07T13:27:38;18.90;99.90
20481;DHT22;10399;50.754;3.366;2023-05-07T13:30:06;18.90;99.90
20481;DHT22;10399;50.754;3.366;2023-05-07T13:32:34;18.80;99.90
20481;DHT22;10399;50.754;3.366;2023-05-07T13:35:02;18.70;99.90
20481;DHT22;10399;50.754;3.366;2023-05-07T13:37:29;18.80;99.90
20481;DHT22;10399;50.754;3.366;2023-05-07T13:39:56;18.80;99.90
20481;DHT22;10399;50.754;3.366;2023-05-07T13:42:23;18.70;99.90
20481;DHT22;10399;50.754;3.366;2023-05-07T13:44:50;18.60;99.90
20481;DHT22;10399;50.754;3.366;2023-05-07T13:47:17;18.80;99.90
20481;DHT22;10399;50.754;3.366;2023-05-07T13:49:44;18.70;99.90
20481;DHT22;10399;50.754;3.366;2023-05-07T13:52:11;18.70;99.90
20481;DHT22;10399;50.754;3.366;2023-05-07T13:54:38;18.80;99.90
20481;DHT22;10399;50.754;3.366;2023-05-07T13:57:05;18.80;99.90
20481;DHT22;10399;50.754;3.366;2023-05-07T13:59:32;18.90;99.90
20481;DHT22;10399;50.754;3.366;2023-05-07T14:02:00;19.00;99.90
20481;DHT22;10399;50.754;3.366;2023-05-07T14:04:27;19.00;99.90
20481;DHT22;10399;50.754;3.366;2023-05-07T14:06:54;19.10;99.90
20481;DHT22;10399;50.754;3.366;2023-05-07T14:09:21;19.20;99.90
20481;DHT22;10399;50.754;3.366;2023-05-07T14:11:49;19.20;99.90
20481;DHT22;10399;50.754;3.366;2023-05-07T14:14:18;19.30;99.90
20481;DHT22;10399;50.754;3.366;2023-05-07T14:16:45;19.30;99.90
20481;DHT22;10399;50.754;3.366;2023-05-07T14:19:16;19.40;99.90
20481;DHT22;10399;50.754;3.366;2023-05-07T14:21:43;19.50;99.90
20481;DHT22;10399;50.754;3.366;2023-05-07T14:24:10;19.50;99.90
20481;DHT22;10399;50.754;3.366;2023-05-07T14:26:37;19.60;99.90
20481;DHT22;10399;50.754;3.366;2023-05-07T14:29:04;19.70;99.90
20481;DHT22;10399;50.754;3.366;2023-05-07T14:31:31;19.80;99.90
20481;DHT22;10399;50.754;3.366;2023-05-07T14:33:59;19.90;99.90
20481;DHT22;10399;50.754;3.366;2023-05-07T14:36:26;19.80;99.90
20481;DHT22;10399;50.754;3.366;2023-05-07T14:38:53;19.80;99.90
20481;DHT22;10399;50.754;3.366;2023-05-07T14:41:22;20.00;99.90
20481;DHT22;10399;50.754;3.366;2023-05-07T14:43:49;20.10;99.90
20481;DHT22;10399;50.754;3.366;2023-05-07T14:46:17;20.20;99.90
20481;DHT22;10399;50.754;3.366;2023-05-07T14:48:45;20.20;99.90
20481;DHT22;10399;50.754;3.366;2023-05-07T14:51:15;20.00;99.90
20481;DHT22;10399;50.754;3.366;2023-05-07T14:53:42;19.80;99.90
20481;DHT22;10399;50.754;3.366;2023-05-07T14:56:09;19.70;99.90
20481;DHT22;10399;50.754;3.366;2023-05-07T14:58:36;19.90;99.90
20481;DHT22;10399;50.754;3.366;2023-05-07T15:01:03;20.00;99.90
20481;DHT22;10399;50.754;3.366;2023-05-07T15:03:31;20.00;99.90
20481;DHT22;10399;50.754;3.366;2023-05-07T15:05:58;20.20;99.90
20481;DHT22;10399;50.754;3.366;2023-05-07T15:08:25;20.20;99.90
20481;DHT22;10399;50.754;3.366;2023-05-07T15:10:52;20.20;99.90
20481;DHT22;10399;50.754;3.366;2023-05-07T15:13:19;20.20;99.90
20481;DHT22;10399;50.754;3.366;2023-05-07T15:15:46;20.20;99.90
20481;DHT22;10399;50.754;3.366;2023-05-07T15:18:14;20.10;99.90
20481;DHT22;10399;50.754;3.366;2023-05-07T15:20:41;20.20;99.90
20481;DHT22;10399;50.754;3.366;2023-05-07T15:23:09;20.20;99.90
20481;DHT22;10399;50.754;3.366;2023-05-07T15:25:36;20.30;99.90
20481;DHT22;10399;50.754;3.366;2023-05-07T15:28:03;20.40;99.90
20481;DHT22;10399;50.754;3.366;2023-05-07T15:30:34;20.40;99.90
20481;DHT22;10399;50.754;3.366;2023-05-07T15:33:02;20.60;99.90
20481;DHT22;10399;50.754;3.366;2023-05-07T15:35:30;20.60;99.90
20481;DHT22;10399;50.754;3.366;2023-05-07T15:37:57;20.70;99.90
20481;DHT22;10399;50.754;3.366;2023-05-07T15:40:24;20.80;99.90
20481;DHT22;10399;50.754;3.366;2023-05-07T15:42:55;20.90;99.90
20481;DHT22;10399;50.754;3.366;2023-05-07T15:45:23;20.80;99.90
20481;DHT22;10399;50.754;3.366;2023-05-07T15:47:50;20.90;99.90
20481;DHT22;10399;50.754;3.366;2023-05-07T15:50:17;20.90;99.90
20481;DHT22;10399;50.754;3.366;2023-05-07T15:52:44;21.00;99.90